Terminal Aerodrome Forecast
Issued by NWS

Home | Current Version | Previous Version | Text Only | Print | Product List | Glossary On
Versions: 1 2 3 4 5 6 7 8 9 10 11 12 13 14 15 16 17 18 19 20 21 22
644
FTUS46 KLOX 292338
TAFLGB
TAF
KLGB 292338Z 3000/3024 26010KT P6SM FEW020
     FM300500 15006KT P6SM OVC025
     FM301800 19009KT P6SM BKN030
     FM302100 21009KT P6SM SCT030=

USA.gov is the U.S. government's official web portal to all federal, state and local government web resources and services.